CheckWX is a tool to help pilots better visualize weather data.  It is not intended as a substitute for an official pre-flight weather briefing.

18:31:04 UTC

KBRO METAR
Brownsville / South Padre Island International Airport
Brownsville, Texas, USA
Current

5 mins ago

KBRO 171826Z 32010KT 10SM SCT009 BKN014 OVC033 24/23 A2975 RMK AO2 T02440233
Observed
Feb-17 @ 18:26 UTC
Wind
  • 320° at 10 KTS
Visibility
10 SM
Flight Rules
MVFR
Cloud Levels
  • Scattered at 900' AGL
  • Broken at 1,400' AGL
  • Overcast at 3,300' AGL
Temperature
24°C / 75°F
Dewpoint
23°C / 73°F
Humidity
94%
Altimeter
29.75" Hg
Pressure
1007.42 hPa
Previous

38 mins ago

KBRO 171753Z 32006KT 4SM BR BKN006 BKN012 OVC019 24/23 A2975 RMK AO2 RAB1654E16 CIG 004V009 SLP073 P0000 60000 T02390233 10239 20211 51011
Observed
Feb-17 @ 17:53 UTC
Wind
  • 320° at 6 KTS
Visibility
4 SM
Flight Rules
IFR
Conditions
Mist
Cloud Levels
  • Broken at 600' AGL
  • Broken at 1,200' AGL
  • Overcast at 1,900' AGL
Temperature
24°C / 75°F
Dewpoint
23°C / 73°F
Humidity
94%
Altimeter
29.75" Hg
Pressure
1007.3 hPa
Current Rain
0.01"
Previous

2 hours ago

KBRO 171653Z 28005KT 10SM BKN007 BKN014 OVC019 23/23 A2975 RMK AO2 RAB33E42 CIG 006V011 SLP072 P0000 T02330228
Observed
Feb-17 @ 16:53 UTC
Wind
  • 280° at 5 KTS
Visibility
10 SM
Flight Rules
IFR
Cloud Levels
  • Broken at 700' AGL
  • Broken at 1,400' AGL
  • Overcast at 1,900' AGL
Temperature
23°C / 73°F
Dewpoint
23°C / 73°F
Humidity
100%
Altimeter
29.75" Hg
Pressure
1007.2 hPa
Current Rain
0.01"